Information Last Ob Photographs Calibration Meteogram Network Table Neighbors Monthly Summaries Observation History Wind Roses Custom Wind Roses Data Calendar Satellite Cloud Product Download

24 February 2024 Observation History, [HNR] HARLAN, timezone: America/Chicago

Select Date: Time Order:

Show METARs   Show High Frequency MADIS

Previous Day
Time Wind
(mph)
Vis.
(mi.)
Sky Cond.
(100s ft)
Present Wx Temperature (ºF) Relative
Humidity
Pressure Snow
Depth
(in)
Precipitation (in.)
Air Dwpt Feels Like 6 hour altimeter
(in.)
sea level
(mb)
1 hr 3 hr 6 hr
Max.Min.
12:15 AMN 510 CLR
211915 93% 30.050
KHNR 240615Z AUTO 36004KT 10SM CLR M06/M07 A3005 RMK A01
12:35 AMNNE 610 CLR
212114 100% 30.040
KHNR 240635Z AUTO 02005KT 10SM CLR M06/M06 A3004 RMK A01
12:55 AMN 510 CLR
212115 100% 30.040
KHNR 240655Z AUTO 36004KT 10SM CLR M06/M06 A3004 RMK A01
1:15 AMN 610 CLR
232316 100% 30.030
KHNR 240715Z AUTO 01005KT 10SM CLR M05/M05 A3003 RMK A01
1:35 AMCalm10 CLR
212121 100% 30.050
KHNR 240735Z AUTO 00000KT 10SM CLR M06/M06 A3005 RMK A01
1:55 AMNNW 610 CLR
191911 100% 30.050
KHNR 240755Z AUTO 33005KT 10SM CLR M07/M07 A3005 RMK A01
2:15 AMCalm10 CLR
212121 100% 30.050
KHNR 240815Z AUTO 00000KT 10SM CLR M06/M06 A3005 RMK A01
2:35 AMCalm10 CLR
191919 100% 30.070
KHNR 240835Z AUTO 00000KT 10SM CLR M07/M07 A3007 RMK A01
2:55 AMCalm9 CLR
181818 100% 30.060
KHNR 240855Z AUTO 00000KT 9SM CLR M08/M08 A3006 RMK A01
3:15 AMCalm8 CLR
181818 100% 30.060
KHNR 240915Z AUTO 00000KT 8SM CLR M08/M08 A3006 RMK A01
3:35 AMCalm9 CLR
191919 100% 30.060
KHNR 240935Z AUTO 00000KT 9SM CLR M07/M07 A3006 RMK A01
3:55 AME 310 CLR
191814 93% 30.050
KHNR 240955Z AUTO 09003KT 10SM CLR M07/M08 A3005 RMK A01
4:15 AMCalm10 CLR
161616 100% 30.050
KHNR 241015Z AUTO 00000KT 10SM CLR M09/M09 A3005 RMK A01
4:35 AMCalm9 CLR
161616 100% 30.070
KHNR 241035Z AUTO 00000KT 9SM CLR M09/M09 A3007 RMK A01
4:55 AMWSW 39 CLR
181812 100% 30.070
KHNR 241055Z AUTO 24003KT 9SM CLR M08/M08 A3007 RMK A01
5:15 AMCalm10 CLR
181818 100% 30.060
KHNR 241115Z AUTO 00000KT 10SM CLR M08/M08 A3006 RMK A01
5:35 AMCalm10 CLR
161616 100% 30.060
KHNR 241135Z AUTO 00000KT 10SM CLR M09/M09 A3006 RMK A01
5:55 AMSW 38 CLR
161610 100% 30.060
KHNR 241155Z AUTO 22003KT 8SM CLR M09/M09 A3006 RMK A01
6:15 AMCalm10 CLR
181618 93% 30.050
KHNR 241215Z AUTO 00000KT 10SM CLR M08/M09 A3005 RMK A01
6:35 AMCalm8 CLR
161616 100% 30.050
KHNR 241235Z AUTO 00000KT 8SM CLR M09/M09 A3005 RMK A01
6:55 AMCalm10 CLR
161616 100% 30.050
KHNR 241255Z AUTO 00000KT 10SM CLR M09/M09 A3005 RMK A01
7:15 AMCalm7 CLR
141414 100% 30.050
KHNR 241315Z AUTO 00000KT 7SM CLR M10/M10 A3005 RMK A01
7:35 AMCalm8 CLR
161616 100% 30.050
KHNR 241335Z AUTO 00000KT 8SM CLR M09/M09 A3005 RMK A01
7:55 AMSSW 37 CLR
191914 100% 30.050
KHNR 241355Z AUTO 19003KT 7SM CLR M07/M07 A3005 RMK A01
8:15 AMSSW 37 CLR
212116 100% 30.050
KHNR 241415Z AUTO 19003KT 7SM CLR M06/M06 A3005 RMK A01
8:35 AMS 37 CLR
232318 100% 30.050
KHNR 241435Z AUTO 17003KT 7SM CLR M05/M05 A3005 RMK A01
8:55 AMSSW 89 CLR
272518 93% 30.060
KHNR 241455Z AUTO 20007KT 9SM CLR M03/M04 A3006 RMK A01
9:15 AMS 810 CLR
302723 86% 30.030
KHNR 241515Z AUTO 18007KT 10SM CLR M01/M03 A3003 RMK A01
9:35 AMSSW 1310 CLR
322822 86% 30.030
KHNR 241535Z AUTO 19011KT 10SM CLR 00/M02 A3003 RMK A01
9:55 AMSSW 1410 CLR
342824 80% 30.030
KHNR 241555Z AUTO 19012KT 10SM CLR 01/M02 A3003 RMK A01
10:15 AMSSW 15G 2310 CLR
362726 69% 30.020
KHNR 241615Z AUTO 20013G20KT 10SM CLR 02/M03 A3002 RMK A01
10:35 AMSSW 16G 2310 CLR
392730 60% 30.010
KHNR 241635Z AUTO 19014G20KT 10SM CLR 04/M03 A3001 RMK A01
10:55 AMSSW 15G 2210 CLR
392731 60% 300
KHNR 241655Z AUTO 21013G19KT 10SM CLR 04/M03 A3000 RMK A01
11:15 AMSSW 1710 CLR
412732 56% 29.980
KHNR 241715Z AUTO 19015KT 10SM CLR 05/M03 A2998 RMK A01
11:35 AMS 16G 2310 CLR
432735 52% 29.970
KHNR 241735Z AUTO 18014G20KT 10SM CLR 06/M03 A2997 RMK A01
11:55 AMS 16G 2310 CLR
432735 52% 29.940
KHNR 241755Z AUTO 18014G20KT 10SM CLR 06/M03 A2994 RMK A01
12:15 PMS 15G 2210 CLR
462740 46% 29.930
KHNR 241815Z AUTO 17013G19KT 10SM CLR 08/M03 A2993 RMK A01
12:35 PMS 16G 2510 CLR
462740 46% 29.920
KHNR 241835Z AUTO 18014G22KT 10SM CLR 08/M03 A2992 RMK A01
12:55 PMSSW 18G 2810 CLR
482742 43% 29.90
KHNR 241855Z AUTO 20016G24KT 10SM CLR 09/M03 A2990 RMK A01
1:15 PMSSW 17G 2610 CLR
502750 40% 29.880
KHNR 241915Z AUTO 21015G23KT 10SM CLR 10/M03 A2988 RMK A01
1:35 PMSSW 17G 2810 CLR
522752 37% 29.870
KHNR 241935Z AUTO 19015G24KT 10SM CLR 11/M03 A2987 RMK A01
1:55 PMSSW 22G 2910 CLR
522752 37% 29.860
KHNR 241955Z AUTO 20019G25KT 10SM CLR 11/M03 A2986 RMK A01
2:15 PMSSW 17G 2410 CLR
542754 35% 29.860
KHNR 242015Z AUTO 21015G21KT 10SM CLR 12/M03 A2986 RMK A01
2:35 PMSW 18G 2410 CLR
542754 35% 29.840
KHNR 242035Z AUTO 22016G21KT 10SM CLR 12/M03 A2984 RMK A01
2:55 PMSSW 1810 CLR
552855 35% 29.840
KHNR 242055Z AUTO 21016KT 10SM CLR 13/M02 A2984 RMK A01
3:15 PMSSW 17G 2810 CLR
572857 33% 29.830
KHNR 242115Z AUTO 20015G24KT 10SM CLR 14/M02 A2983 RMK A01
3:35 PMSSW 1810 CLR
572857 33% 29.820
KHNR 242135Z AUTO 21016KT 10SM CLR 14/M02 A2982 RMK A01
3:55 PMSSW 14G 2210 CLR
572857 33% 29.810
KHNR 242155Z AUTO 21012G19KT 10SM CLR 14/M02 A2981 RMK A01
4:15 PMSSW 12G 2110 CLR
592859 31% 29.80
KHNR 242215Z AUTO 21010G18KT 10SM CLR 15/M02 A2980 RMK A01
4:35 PMSW 8G 1610 CLR
592759 29% 29.790
KHNR 242235Z AUTO 22007G14KT 10SM CLR 15/M03 A2979 RMK A01
4:55 PMSW 1210 CLR
612761 27% 29.780
KHNR 242255Z AUTO 23010KT 10SM CLR 16/M03 A2978 RMK A01
5:15 PMSSW 1210 CLR
592759 29% 29.780
KHNR 242315Z AUTO 21010KT 10SM CLR 15/M03 A2978 RMK A01
5:35 PMSSW 1010 CLR
572757 31% 29.770
KHNR 242335Z AUTO 20009KT 10SM CLR 14/M03 A2977 RMK A01
5:55 PMSSW 810 CLR
542554 32% 29.770
KHNR 242355Z AUTO 20007KT 10SM CLR 12/M04 A2977 RMK A01
6:15 PMCalm10 CLR
502550 37% 29.770
KHNR 250015Z AUTO 00000KT 10SM CLR 10/M04 A2977 RMK A01
6:35 PMCalm10 CLR
502550 37% 29.780
KHNR 250035Z AUTO 00000KT 10SM CLR 10/M04 A2978 RMK A01
6:55 PMCalm10 CLR
462546 42% 29.790
KHNR 250055Z AUTO 00000KT 10SM CLR 08/M04 A2979 RMK A01
7:15 PMNNE 310 CLR
412539 52% 29.790
KHNR 250115Z AUTO 03003KT 10SM CLR 05/M04 A2979 RMK A01
7:35 PMCalm10 CLR
392339 52% 29.790
KHNR 250135Z AUTO 00000KT 10SM CLR 04/M05 A2979 RMK A01
7:55 PMCalm10 CLR
372537 60% 29.80
KHNR 250155Z AUTO 00000KT 10SM CLR 03/M04 A2980 RMK A01
8:15 PMCalm10 CLR
372337 56% 29.80
KHNR 250215Z AUTO 00000KT 10SM CLR 03/M05 A2980 RMK A01
8:35 PMCalm10 CLR
342334 64% 29.790
KHNR 250235Z AUTO 00000KT 10SM CLR 01/M05 A2979 RMK A01
8:55 PMCalm10 CLR
362336 60% 29.790
KHNR 250255Z AUTO 00000KT 10SM CLR 02/M05 A2979 RMK A01
9:15 PMCalm10 CLR
342334 64% 29.790
KHNR 250315Z AUTO 00000KT 10SM CLR 01/M05 A2979 RMK A01
9:35 PMSSW 510 CLR
342330 64% 29.790
KHNR 250335Z AUTO 19004KT 10SM CLR 01/M05 A2979 RMK A01
9:55 PMSSW 610 CLR
342329 64% 29.790
KHNR 250355Z AUTO 20005KT 10SM CLR 01/M05 A2979 RMK A01

The IEM API webservice that provided data to this page. For more details, see documentation.

Data Notes

  • For recent years, this page also optionally shows observations from the MADIS High Frequency METAR dataset. This dataset had a problem with temperatures detailed here.